Airfield :
LOGIN :

Register | Disclaimer

   EN    FR    IT 

 










Legend :    VFR   Marginal VFR   IFR   Intensive IFR   Very Intensive IFR
Visi :
Ceiling :
>= 8 km
>= 3000ft
5 to 8 km
1000 to 3000 ft
1500m to 5 km
500 to 1000 ft
800 to 1500m
200 to 500 ft
< 800m
< 200 ft
Symbols :   Thunderstorms  Fog  Heavy snow  Heavy precipitations  Wind > 20 kt
SIGMETs :     Misc.  Thunderstorms  Icing  Turbulence  Mountain Waves  Volcanic Ashes







- Airport Elevation : 502 ft
- IATA code : ORK


EICK - Cork

CURRENT METAR :
  • 210300Z 16005KT 5000 -RADZ FEW002 OVC003 11/11 Q1016 TEMPO 4000

EXPIRED METARs :
  • 210230Z 16005KT 5000 -RADZ OVC003 11/11 Q1016 TEMPO 4000
  • 210200Z 16005KT 6000 -RADZ OVC003 11/11 Q1017 TEMPO 4000
  • 210130Z 16005KT 7000 -DZ OVC003 11/11 Q1017 TEMPO 4000
  • 210100Z 16005KT 9999 -DZ OVC003 11/11 Q1017 TEMPO 4000
  • 210030Z 17005KT 9999 -DZ BKN004 BKN070 BKN080 11/11 Q1017 TEMPO 4000

TAF TAF EICK
Valid from the 21 at 00:00 until the 22 at 00:00 UTC


202300Z 2100/2124 18008KT 9999 -RA SCT008 BKN040
TEMPO 2100/2117 4000 -RADZ BR BKN004
PROB30
TEMPO 2100/2108 0300 FG OVC001
BECMG 2108/2111 35010KT
BECMG 2117/2119 BKN018
PROB40
TEMPO 2121/2124 BKN012
No reported NOTAMs for that airfield.



MET'MAP, your aeronautical weather chart ! - Copyright ORBIFLY December 2007 - Disclaimer

ORBIFLY MET'MAP TEAM :

Programming & Development : Alexandra Zaïnal
Concept & Development : Baudouin d'Aumeries
Co-Development & Prog : Marc-Olivier Méhu
Technical & hardware support : Manuel Goepfert

Contact : metmap@orbifly.com




SOURCES & CREDITS :

   NOAA